createdAt,value
2022-10-14T00:03:17.721Z,97936.00
2022-10-14T00:07:18.888Z,97937.00
2022-10-14T00:11:23.453Z,97932.00
2022-10-14T00:15:24.290Z,97928.00
2022-10-14T00:19:25.584Z,97911.00
2022-10-14T00:23:27.304Z,97918.00
2022-10-14T00:27:28.281Z,97925.00
2022-10-14T00:31:30.002Z,97926.00
2022-10-14T00:35:31.808Z,97918.00
2022-10-14T00:39:32.829Z,97936.00
2022-10-14T00:44:12.448Z,97932.00
2022-10-14T00:48:14.595Z,97934.00
2022-10-14T00:52:21.587Z,97933.00
2022-10-14T00:56:25.320Z,97937.00
2022-10-14T01:00:26.277Z,97935.00
2022-10-14T01:04:27.418Z,97932.00
2022-10-14T01:08:32.141Z,97932.00
2022-10-14T01:12:56.349Z,97932.00
2022-10-14T01:17:07.137Z,97928.00
2022-10-14T01:21:27.169Z,97923.00
2022-10-14T01:25:34.115Z,97930.00
2022-10-14T01:30:07.718Z,97918.00
2022-10-14T01:34:11.453Z,97914.00
2022-10-14T01:38:35.923Z,97909.00
2022-10-14T01:42:40.441Z,97904.00
2022-10-14T01:46:45.182Z,97895.00
2022-10-14T01:50:48.903Z,97853.00
2022-10-14T01:54:52.588Z,97889.00
2022-10-14T01:58:54.529Z,97883.00
2022-10-14T02:02:55.365Z,97891.00
2022-10-14T02:07:14.848Z,97879.00
2022-10-14T02:11:18.099Z,97883.00
2022-10-14T02:15:39.443Z,97873.00
2022-10-14T02:19:44.097Z,97874.00
2022-10-14T02:23:54.845Z,97869.00
2022-10-14T02:27:57.920Z,97871.00
2022-10-14T02:32:01.491Z,97857.00
2022-10-14T02:36:04.523Z,97862.00
2022-10-14T02:40:12.056Z,97862.00
2022-10-14T02:44:13.005Z,97849.00
2022-10-14T02:48:14.086Z,97842.00
2022-10-14T02:52:15.033Z,97844.00
2022-10-14T02:56:17.117Z,97835.00
2022-10-14T03:00:18.693Z,97832.00
2022-10-14T03:04:19.594Z,97835.00
2022-10-14T03:08:20.543Z,97822.00
2022-10-14T03:12:21.891Z,97821.00
2022-10-14T03:16:22.977Z,97813.00
2022-10-14T03:20:23.960Z,97807.00
2022-10-14T03:24:25.022Z,97812.00
2022-10-14T03:28:31.555Z,97812.00
2022-10-14T03:32:32.587Z,97811.00
2022-10-14T03:36:33.432Z,97805.00
2022-10-14T03:40:34.473Z,97816.00
2022-10-14T03:44:35.444Z,97809.00
2022-10-14T03:48:36.382Z,97800.00
2022-10-14T03:52:37.465Z,97804.00
2022-10-14T03:56:38.491Z,97803.00
2022-10-14T04:00:39.424Z,97797.00
2022-10-14T04:04:40.255Z,97803.00
2022-10-14T04:08:41.325Z,97799.00
2022-10-14T04:12:43.378Z,97806.00
2022-10-14T04:16:48.829Z,97799.00
2022-10-14T04:20:47.089Z,97796.00
2022-10-14T04:24:48.079Z,97796.00
2022-10-14T04:28:49.058Z,97794.00
2022-10-14T04:32:50.064Z,97787.00
2022-10-14T04:36:52.630Z,97787.00
2022-10-14T04:40:54.495Z,97778.00
2022-10-14T04:44:55.563Z,97789.00
2022-10-14T04:48:56.704Z,97776.00
2022-10-14T04:52:57.539Z,97777.00
2022-10-14T04:56:58.496Z,97777.00
2022-10-14T05:00:59.429Z,97775.00
2022-10-14T05:05:00.309Z,97775.00
2022-10-14T05:09:01.260Z,97765.00
2022-10-14T05:13:02.735Z,97767.00
2022-10-14T05:17:03.669Z,97767.00
2022-10-14T05:21:04.825Z,97759.00
2022-10-14T05:29:11.218Z,97759.00
2022-10-14T05:33:12.265Z,97757.00
2022-10-14T05:37:13.211Z,97750.00
2022-10-14T05:41:14.277Z,97757.00
2022-10-14T05:45:15.550Z,97757.00
2022-10-14T05:49:16.492Z,97750.00
2022-10-14T05:53:17.522Z,97752.00
2022-10-14T05:57:18.515Z,97755.00
2022-10-14T06:01:19.469Z,97757.00
2022-10-14T06:05:20.581Z,97741.00
2022-10-14T06:09:21.525Z,97744.00
2022-10-14T06:13:22.707Z,97672.00
2022-10-14T06:17:23.695Z,97749.00
2022-10-14T06:21:25.637Z,97743.00
2022-10-14T06:25:26.581Z,97662.00
2022-10-14T06:29:29.385Z,97750.00
2022-10-14T06:33:31.254Z,97746.00
2022-10-14T06:37:32.311Z,97748.00
2022-10-14T06:41:33.399Z,97742.00
2022-10-14T06:45:34.479Z,97748.00
2022-10-14T06:49:35.668Z,97734.00
2022-10-14T06:53:36.646Z,97748.00
2022-10-14T06:57:37.591Z,97748.00
2022-10-14T07:01:38.639Z,97742.00
2022-10-14T07:05:39.897Z,97761.00
2022-10-14T07:09:41.156Z,97744.00
2022-10-14T07:13:42.318Z,97742.00
2022-10-14T07:17:43.610Z,97735.00
2022-10-14T07:21:46.165Z,97728.00
2022-10-14T07:25:47.184Z,97731.00
2022-10-14T07:29:48.289Z,97737.00
2022-10-14T07:33:49.353Z,97728.00
2022-10-14T07:37:50.318Z,97724.00
2022-10-14T07:41:51.421Z,97726.00
2022-10-14T07:45:54.507Z,97731.00
2022-10-14T07:49:55.541Z,97725.00
2022-10-14T07:53:58.048Z,97731.00
2022-10-14T07:57:59.017Z,97736.00
2022-10-14T08:02:00.030Z,97741.00
2022-10-14T08:06:02.964Z,97742.00
2022-10-14T08:10:04.480Z,97741.00
2022-10-14T08:14:06.307Z,97735.00
2022-10-14T08:18:10.037Z,97740.00
2022-10-14T08:22:11.007Z,97736.00
2022-10-14T08:26:24.922Z,97730.00
2022-10-14T08:30:25.917Z,97735.00
2022-10-14T08:34:27.484Z,97735.00
2022-10-14T08:38:28.465Z,97721.00
2022-10-14T08:42:51.146Z,97719.00
2022-10-14T08:46:55.831Z,97726.00
2022-10-14T08:51:03.335Z,97734.00
2022-10-14T08:55:20.186Z,97738.00
2022-10-14T08:59:22.970Z,97734.00
2022-10-14T09:03:29.212Z,97724.00
2022-10-14T09:07:32.626Z,97719.00
2022-10-14T09:11:40.407Z,97726.00
2022-10-14T09:15:45.057Z,97726.00
2022-10-14T09:19:55.781Z,97754.00
2022-10-14T09:24:23.331Z,97716.00
2022-10-14T09:28:31.062Z,97709.00
2022-10-14T09:32:48.462Z,97691.00
2022-10-14T09:40:56.066Z,97682.00
2022-10-14T09:45:09.752Z,97684.00
2022-10-14T09:49:38.861Z,97680.00
2022-10-14T09:53:48.066Z,97678.00
2022-10-14T09:57:58.850Z,97669.00
2022-10-14T10:02:04.827Z,97664.00
2022-10-14T10:06:11.890Z,97663.00
2022-10-14T10:10:21.907Z,97660.00
2022-10-14T10:14:32.449Z,97662.00
2022-10-14T10:18:33.511Z,97660.00
2022-10-14T10:22:36.558Z,97672.00
2022-10-14T10:26:37.615Z,97667.00
2022-10-14T10:30:59.335Z,97655.00
2022-10-14T10:35:04.295Z,97643.00
2022-10-14T10:39:11.937Z,97639.00
2022-10-14T10:43:25.678Z,97660.00
2022-10-14T10:47:48.973Z,97647.00
2022-10-14T10:51:56.686Z,97642.00
2022-10-14T10:56:07.623Z,97633.00
2022-10-14T11:00:12.763Z,97626.00
2022-10-14T11:04:35.612Z,97621.00
2022-10-14T11:08:58.909Z,97610.00
2022-10-14T11:13:09.787Z,97348.00
2022-10-14T11:17:27.078Z,97604.00
2022-10-14T11:21:41.087Z,97597.00
2022-10-14T11:25:52.719Z,97581.00
2022-10-14T11:30:03.773Z,97577.00
2022-10-14T11:34:17.889Z,97579.00
2022-10-14T11:38:32.450Z,97573.00
2022-10-14T11:42:55.347Z,97563.00
2022-10-14T11:47:00.244Z,97559.00
2022-10-14T11:51:07.935Z,97556.00
2022-10-14T11:55:15.525Z,97549.00
2022-10-14T11:59:49.665Z,97546.00
2022-10-14T12:04:00.572Z,97533.00
2022-10-14T12:08:22.448Z,97529.00
2022-10-14T12:12:26.877Z,97537.00
2022-10-14T12:16:29.129Z,97526.00
2022-10-14T12:20:50.968Z,97522.00
2022-10-14T12:24:58.645Z,97516.00
2022-10-14T12:29:03.781Z,97518.00
2022-10-14T12:33:08.983Z,97513.00
2022-10-14T12:37:34.717Z,97490.00
2022-10-14T12:41:40.011Z,97481.00
2022-10-14T12:46:02.854Z,97486.00
2022-10-14T12:50:17.069Z,97484.00
2022-10-14T12:54:18.339Z,97496.00
2022-10-14T12:58:38.390Z,97495.00
2022-10-14T13:02:47.567Z,97491.00
2022-10-14T13:07:39.886Z,97493.00
2022-10-14T13:11:27.534Z,97494.00
2022-10-14T13:15:38.684Z,97486.00
2022-10-14T13:19:42.970Z,97488.00
2022-10-14T13:23:47.560Z,97482.00
2022-10-14T13:28:04.192Z,97478.00
2022-10-14T13:32:30.803Z,97463.00
2022-10-14T13:36:35.395Z,97456.00
2022-10-14T13:40:39.648Z,97456.00
2022-10-14T13:44:40.986Z,97455.00
2022-10-14T13:48:48.515Z,97448.00
2022-10-14T13:53:00.166Z,97439.00
2022-10-14T13:57:53.730Z,97433.00
2022-10-14T14:01:21.528Z,97425.00
2022-10-14T14:05:25.204Z,97428.00
2022-10-14T14:09:29.527Z,97429.00
2022-10-14T14:13:34.389Z,97415.00
2022-10-14T14:17:35.398Z,97405.00
2022-10-14T14:21:39.076Z,97394.00
2022-10-14T14:26:01.269Z,97393.00
2022-10-14T14:29:48.028Z,97399.00
2022-10-14T14:33:49.612Z,97409.00
2022-10-14T14:37:58.875Z,97401.00
2022-10-14T14:41:58.072Z,97391.00
2022-10-14T14:46:03.008Z,97390.00
2022-10-14T14:50:29.141Z,97387.00
2022-10-14T14:54:20.258Z,97373.00
2022-10-14T14:58:29.304Z,97369.00
2022-10-14T15:02:34.007Z,97369.00
2022-10-14T15:06:36.655Z,97366.00
2022-10-14T15:10:42.686Z,97372.00
2022-10-14T15:14:48.400Z,97372.00
2022-10-14T15:18:50.437Z,97376.00
2022-10-14T15:22:52.615Z,97394.00
2022-10-14T15:26:55.380Z,97379.00
2022-10-14T15:31:03.144Z,97377.00
2022-10-14T15:35:05.043Z,97366.00
2022-10-14T15:39:09.837Z,97360.00
2022-10-14T15:43:17.442Z,97364.00
2022-10-14T15:47:21.837Z,97358.00
2022-10-14T15:51:25.886Z,97358.00
2022-10-14T15:55:31.212Z,97350.00
2022-10-14T15:59:34.759Z,97308.00
2022-10-14T16:03:40.825Z,97350.00
2022-10-14T16:07:40.670Z,97350.00
2022-10-14T16:11:43.529Z,97348.00
2022-10-14T16:15:56.609Z,97342.00
2022-10-14T16:19:59.470Z,97334.00
2022-10-14T16:24:03.983Z,97340.00
2022-10-14T16:28:10.119Z,97337.00
2022-10-14T16:32:14.129Z,97268.00
2022-10-14T16:36:18.050Z,97328.00
2022-10-14T16:40:21.104Z,97315.00
2022-10-14T16:44:27.680Z,97307.00
2022-10-14T16:48:31.669Z,97311.00
2022-10-14T16:52:35.628Z,97307.00
2022-10-14T16:56:51.831Z,97306.00
2022-10-14T17:00:53.111Z,97324.00
2022-10-14T17:04:56.517Z,97324.00
2022-10-14T17:08:58.636Z,97318.00
2022-10-14T17:13:01.993Z,97325.00
2022-10-14T17:17:03.817Z,97317.00
2022-10-14T17:21:07.655Z,97323.00
2022-10-14T17:25:09.321Z,97335.00
2022-10-14T17:29:13.404Z,97327.00
2022-10-14T17:33:15.654Z,97312.00
2022-10-14T17:37:18.261Z,97316.00
2022-10-14T17:41:20.328Z,97322.00
2022-10-14T17:45:23.422Z,97326.00
2022-10-14T17:49:26.328Z,97333.00
2022-10-14T17:53:30.385Z,97301.00
2022-10-14T17:57:33.634Z,97311.00
2022-10-14T18:02:04.449Z,97314.00
2022-10-14T18:05:39.801Z,97308.00
2022-10-14T18:09:42.732Z,97318.00
2022-10-14T18:13:43.947Z,97312.00
2022-10-14T18:17:45.181Z,97313.00
2022-10-14T18:21:46.102Z,97316.00
2022-10-14T18:25:47.125Z,97301.00
2022-10-14T18:29:48.246Z,97296.00
2022-10-14T18:33:51.728Z,97289.00
2022-10-14T18:37:54.064Z,97286.00
2022-10-14T18:41:55.551Z,97272.00
2022-10-14T18:46:09.146Z,97274.00
2022-10-14T18:50:10.435Z,97272.00
2022-10-14T18:54:18.054Z,97271.00
2022-10-14T18:58:20.380Z,97274.00
2022-10-14T19:02:24.574Z,97270.00
2022-10-14T19:06:27.677Z,97255.00
2022-10-14T19:10:33.827Z,97253.00
2022-10-14T19:14:37.920Z,97257.00
2022-10-14T19:18:39.211Z,97263.00
2022-10-14T19:22:42.395Z,97257.00
2022-10-14T19:26:47.523Z,97247.00
2022-10-14T19:30:48.983Z,97234.00
2022-10-14T19:34:51.103Z,97247.00
2022-10-14T19:38:57.749Z,97244.00
2022-10-14T19:42:59.235Z,97241.00
2022-10-14T19:47:02.770Z,97246.00
2022-10-14T19:51:08.725Z,97244.00
2022-10-14T19:55:10.890Z,97238.00
2022-10-14T19:59:15.123Z,97241.00
2022-10-14T20:03:19.779Z,97236.00
2022-10-14T20:07:21.879Z,97229.00
2022-10-14T20:11:24.595Z,97228.00
2022-10-14T20:15:26.242Z,97222.00
2022-10-14T20:19:27.441Z,97230.00
2022-10-14T20:23:29.316Z,97235.00
2022-10-14T20:27:30.362Z,97228.00
2022-10-14T20:31:31.481Z,97224.00
2022-10-14T20:35:33.157Z,97212.00
2022-10-14T20:39:34.311Z,97208.00
2022-10-14T20:43:35.290Z,97203.00
2022-10-14T20:47:36.238Z,97193.00
2022-10-14T20:51:37.320Z,97198.00
2022-10-14T20:55:38.315Z,97216.00
2022-10-14T20:59:40.923Z,97191.00
2022-10-14T21:03:44.043Z,97184.00
2022-10-14T21:07:45.049Z,97190.00
2022-10-14T21:11:46.251Z,97183.00
2022-10-14T21:15:47.197Z,97183.00
2022-10-14T21:19:48.766Z,97173.00
2022-10-14T21:23:49.873Z,97185.00
2022-10-14T21:27:51.388Z,97192.00
2022-10-14T21:31:52.828Z,97183.00
2022-10-14T21:35:53.810Z,97184.00
2022-10-14T21:39:54.693Z,97167.00
2022-10-14T21:43:56.570Z,97163.00
2022-10-14T21:51:59.383Z,97147.00
2022-10-14T21:56:00.727Z,97151.00
2022-10-14T22:00:01.728Z,97149.00
2022-10-14T22:04:05.091Z,97141.00
2022-10-14T22:08:06.219Z,97128.00
2022-10-14T22:12:07.238Z,97113.00
2022-10-14T22:16:08.600Z,97119.00
2022-10-14T22:20:10.360Z,97110.00
2022-10-14T22:24:12.301Z,97117.00
2022-10-14T22:28:13.282Z,97115.00
2022-10-14T22:32:14.615Z,97110.00
2022-10-14T22:36:23.916Z,97093.00
2022-10-14T22:40:25.225Z,97093.00
2022-10-14T22:44:26.184Z,97092.00
2022-10-14T22:48:29.338Z,97098.00
2022-10-14T22:52:30.405Z,97094.00
2022-10-14T22:56:32.371Z,97089.00
2022-10-14T23:00:33.568Z,97099.00
2022-10-14T23:04:34.501Z,97101.00
2022-10-14T23:08:35.658Z,97095.00
2022-10-14T23:12:36.810Z,97087.00
2022-10-14T23:16:38.379Z,97088.00
2022-10-14T23:20:39.236Z,97082.00
2022-10-14T23:24:40.124Z,97073.00
2022-10-14T23:28:41.645Z,97078.00
2022-10-14T23:32:42.715Z,97076.00
2022-10-14T23:36:43.761Z,97067.00
2022-10-14T23:40:44.733Z,97065.00
2022-10-14T23:44:45.710Z,97049.00
2022-10-14T23:48:55.410Z,97052.00
2022-10-14T23:52:49.695Z,97054.00
2022-10-14T23:56:50.863Z,97064.00
